Time;durP1;ratioP1;P1;durP2;ratioP2;P2;SDS_P1;SDS_P2;PMS_P1;PMS_P2;Temp;Humidity;BMP_temperature;BMP_pressure;BME280_temperature;BME280_humidity;BME280_pressure;Samples;Min_cycle;Max_cycle;Signal;HPM_P1;HPM_P2
2022/04/08 00:00:18;;;;;;;13.88;8.27;;;;;;;7.68;100.00;98276.72;6268966;28;20048;-78
2022/04/08 00:03:19;;;;;;;18.30;8.68;;;;;;;7.76;100.00;98279.53;6302474;28;20089;-75
2022/04/08 00:06:20;;;;;;;13.25;8.38;;;;;;;7.76;100.00;98268.31;6318772;28;20576;-75
2022/04/08 00:09:21;;;;;;;14.18;8.70;;;;;;;7.72;100.00;98278.13;6336009;28;20522;-75
2022/04/08 00:12:22;;;;;;;12.88;7.05;;;;;;;7.71;100.00;98267.84;6318634;28;20084;-78
2022/04/08 00:15:23;;;;;;;17.10;9.68;;;;;;;7.67;100.00;98260.28;6285565;28;20052;-75
2022/04/08 00:18:24;;;;;;;16.77;8.63;;;;;;;7.64;100.00;98270.09;6320066;28;20040;-75
2022/04/08 00:21:25;;;;;;;15.15;9.60;;;;;;;7.77;100.00;98264.78;6318799;28;20165;-74
2022/04/08 00:24:26;;;;;;;15.88;9.77;;;;;;;7.80;100.00;98270.56;6319978;28;20040;-74
2022/04/08 00:27:27;;;;;;;13.88;9.40;;;;;;;7.81;100.00;98272.19;6320105;28;20067;-78
2022/04/08 00:30:28;;;;;;;15.13;8.90;;;;;;;7.78;100.00;98263.81;6302044;28;20101;-78
2022/04/08 00:33:31;;;;;;;16.65;9.68;;;;;;;7.86;100.00;98261.44;6319674;28;20389;-78
2022/04/08 00:36:32;;;;;;;17.73;9.00;;;;;;;7.91;100.00;98264.53;6319996;28;20040;-75
2022/04/08 00:39:33;;;;;;;15.15;10.40;;;;;;;7.91;100.00;98269.72;6319724;28;20514;-75
2022/04/08 00:42:34;;;;;;;15.85;10.60;;;;;;;7.84;100.00;98271.13;6320556;28;20067;-75
2022/04/08 00:45:34;;;;;;;16.50;11.30;;;;;;;7.98;100.00;98283.03;6324359;28;20555;-74
2022/04/08 00:48:36;;;;;;;17.10;10.88;;;;;;;8.02;100.00;98285.28;6324530;28;20085;-75
2022/04/08 00:51:39;;;;;;;20.10;10.13;;;;;;;8.07;100.00;98287.50;6324296;28;20067;-75
2022/04/08 00:54:44;;;;;;;18.75;10.43;;;;;;;8.07;100.00;98290.94;6306871;28;20138;-74
2022/04/08 00:57:45;;;;;;;14.18;9.73;;;;;;;8.10;100.00;98291.66;6322950;28;20036;-75
2022/04/08 01:00:46;;;;;;;15.05;9.88;;;;;;;8.18;100.00;98292.69;6324240;28;20043;-75
2022/04/08 01:03:47;;;;;;;15.82;10.10;;;;;;;8.19;100.00;98276.13;6324300;28;20040;-75
2022/04/08 01:06:48;;;;;;;16.63;11.05;;;;;;;8.17;100.00;98272.84;6323973;28;20036;-74
2022/04/08 01:09:51;;;;;;;17.27;11.18;;;;;;;8.14;100.00;98272.28;6305897;28;20488;-75
2022/04/08 01:12:52;;;;;;;20.25;12.13;;;;;;;8.17;100.00;98279.81;6323707;28;20044;-75
2022/04/08 01:15:52;;;;;;;16.65;11.98;;;;;;;8.15;100.00;98279.09;6305699;28;20464;-75
2022/04/08 01:18:53;;;;;;;19.80;11.63;;;;;;;8.28;100.00;98285.81;6323733;28;20032;-75
2022/04/08 01:21:54;;;;;;;19.60;11.27;;;;;;;8.34;100.00;98276.72;6322396;28;20050;-75
2022/04/08 01:25:03;;;;;;;20.13;11.52;;;;;;;8.36;100.00;98284.34;6305433;28;20044;-75
2022/04/08 01:28:04;;;;;;;19.50;11.48;;;;;;;8.33;100.00;98271.63;6322599;28;20119;-74
2022/04/08 01:31:05;;;;;;;17.40;11.60;;;;;;;8.21;100.00;98274.25;6305362;28;20446;-78
2022/04/08 01:34:05;;;;;;;20.88;12.38;;;;;;;8.28;100.00;98285.00;6323548;28;20415;-78
2022/04/08 01:37:06;;;;;;;17.13;12.27;;;;;;;8.26;100.00;98287.72;6323388;28;20051;-78
2022/04/08 01:40:07;;;;;;;18.20;11.75;;;;;;;8.26;100.00;98289.50;6305154;28;20048;-78
2022/04/08 01:43:08;;;;;;;17.98;11.98;;;;;;;8.28;100.00;98279.81;6305192;28;20059;-79
2022/04/08 01:46:09;;;;;;;18.35;11.55;;;;;;;8.36;100.00;98282.59;6304958;28;20067;-75
2022/04/08 01:49:10;;;;;;;17.65;11.00;;;;;;;8.31;100.00;98279.53;6321861;28;20048;-75
2022/04/08 01:52:11;;;;;;;19.88;12.65;;;;;;;8.35;100.00;98269.72;6304802;28;20094;-75
2022/04/08 01:55:12;;;;;;;19.63;12.10;;;;;;;8.40;100.00;98275.38;6322773;28;20389;-78
2022/04/08 01:58:13;;;;;;;20.10;11.77;;;;;;;8.46;100.00;98303.50;6304940;28;20051;-78
2022/04/08 02:01:13;;;;;;;20.83;12.15;;;;;;;8.43;100.00;98301.97;6321546;28;20047;-78
2022/04/08 02:04:14;;;;;;;17.20;11.80;;;;;;;8.41;100.00;98310.84;6321372;28;20040;-79
2022/04/08 02:07:15;;;;;;;17.08;11.57;;;;;;;8.42;100.00;98310.75;6320974;28;20052;-74
2022/04/08 02:10:16;;;;;;;20.85;12.13;;;;;;;8.40;100.00;98317.81;6321176;28;20056;-75
2022/04/08 02:13:17;;;;;;;18.27;11.82;;;;;;;8.45;100.00;98309.66;6320999;28;20051;-74
2022/04/08 02:16:18;;;;;;;20.42;11.52;;;;;;;8.52;100.00;98308.22;6322357;28;20055;-75
2022/04/08 02:19:18;;;;;;;17.20;10.98;;;;;;;8.45;100.00;98296.66;6322220;28;20044;-74
2022/04/08 02:22:20;;;;;;;16.77;11.60;;;;;;;8.39;100.00;98291.94;6322154;28;20096;-75
2022/04/08 02:25:20;;;;;;;21.17;11.80;;;;;;;8.48;100.00;98288.59;6320909;28;20064;-75
2022/04/08 02:28:21;;;;;;;18.23;11.27;;;;;;;8.39;100.00;98284.94;6304145;28;20415;-75
2022/04/08 02:31:22;;;;;;;24.30;11.93;;;;;;;8.31;100.00;98289.94;6270747;28;20465;-75
2022/04/08 02:34:23;;;;;;;20.33;11.52;;;;;;;8.41;100.00;98288.28;6303626;28;20093;-75
2022/04/08 02:37:24;;;;;;;16.25;11.23;;;;;;;8.32;100.00;98299.41;6320771;28;20471;-75
2022/04/08 02:40:25;;;;;;;20.58;11.65;;;;;;;8.40;100.00;98319.56;6320545;28;20040;-75
2022/04/08 02:43:26;;;;;;;16.63;11.18;;;;;;;8.36;100.00;98313.81;6320457;28;20048;-78
2022/04/08 02:46:26;;;;;;;21.23;10.63;;;;;;;8.43;100.00;98299.38;6320434;28;20047;-78
2022/04/08 02:49:27;;;;;;;17.13;10.27;;;;;;;8.44;100.00;98269.84;6303527;28;20544;-78
2022/04/08 02:52:28;;;;;;;17.95;11.57;;;;;;;8.34;100.00;98270.66;6320116;28;20098;-78
2022/04/08 02:55:29;;;;;;;19.15;11.30;;;;;;;8.39;100.00;98274.56;6320222;28;20129;-79
2022/04/08 02:58:30;;;;;;;22.25;12.32;;;;;;;8.32;100.00;98255.22;6320139;28;20047;-75
2022/04/08 03:01:31;;;;;;;16.60;10.80;;;;;;;8.32;100.00;98247.44;6303253;28;20499;-75
2022/04/08 03:04:31;;;;;;;16.92;10.70;;;;;;;8.34;100.00;98234.28;6319876;28;20072;-75
2022/04/08 03:07:33;;;;;;;19.13;10.90;;;;;;;8.34;100.00;98244.69;6320590;28;20044;-75
2022/04/08 03:10:33;;;;;;;15.77;9.95;;;;;;;8.44;100.00;98256.00;6302957;28;20047;-75
2022/04/08 03:13:35;;;;;;;16.75;10.48;;;;;;;8.46;100.00;98272.31;6303262;28;20408;-75
2022/04/08 03:16:36;;;;;;;13.63;9.27;;;;;;;8.40;100.00;98306.56;6321018;28;20044;-75
2022/04/08 03:19:36;;;;;;;19.67;10.73;;;;;;;8.47;100.00;98337.19;6319597;28;20067;-75
2022/04/08 03:22:37;;;;;;;16.30;9.75;;;;;;;8.52;100.00;98326.41;6302820;28;20377;-78
2022/04/08 03:25:38;;;;;;;13.98;9.55;;;;;;;8.54;100.00;98310.69;6320833;28;20119;-75
2022/04/08 03:28:39;;;;;;;17.40;10.63;;;;;;;8.50;100.00;98294.50;6319442;28;20097;-75
2022/04/08 03:31:40;;;;;;;16.73;11.00;;;;;;;8.52;100.00;98297.00;6302669;28;20408;-78
2022/04/08 03:34:41;;;;;;;16.80;10.57;;;;;;;8.41;100.00;98308.25;6319284;28;20101;-78
2022/04/08 03:37:41;;;;;;;17.60;10.82;;;;;;;8.35;100.00;98314.72;6302561;28;20105;-75
2022/04/08 03:40:42;;;;;;;15.45;8.55;;;;;;;8.40;100.00;98325.59;6285964;28;20126;-75
2022/04/08 03:43:43;;;;;;;17.00;10.02;;;;;;;8.33;100.00;98342.59;6285861;28;20126;-75
2022/04/08 03:46:45;;;;;;;16.65;9.27;;;;;;;8.36;100.00;98338.94;6319004;28;20040;-76
2022/04/08 03:49:47;;;;;;;19.88;10.20;;;;;;;8.35;100.00;98351.13;6320455;28;20064;-74
2022/04/08 03:52:47;;;;;;;13.80;9.77;;;;;;;8.33;100.00;98359.97;6301944;28;20504;-75
2022/04/08 03:55:48;;;;;;;17.25;9.85;;;;;;;8.31;100.00;98352.31;6333089;28;20058;-74
2022/04/08 03:58:49;;;;;;;16.48;9.32;;;;;;;8.33;100.00;98355.59;6312425;28;20135;-75
2022/04/08 04:01:50;;;;;;;15.95;10.00;;;;;;;8.29;100.00;98364.59;6278215;28;20067;-75
2022/04/08 04:04:51;;;;;;;15.52;9.23;;;;;;;8.22;100.00;98350.44;6294962;28;20102;-75
2022/04/08 04:07:51;;;;;;;12.95;9.13;;;;;;;8.29;100.00;98359.38;6294373;28;20048;-75
2022/04/08 04:10:52;;;;;;;19.58;10.35;;;;;;;8.21;100.00;98362.59;6315200;28;20571;-75
2022/04/08 04:13:53;;;;;;;15.02;9.73;;;;;;;8.24;100.00;98377.13;6269724;28;20058;-75
2022/04/08 04:16:54;;;;;;;17.42;9.55;;;;;;;8.19;100.00;98380.06;6320047;28;20043;-75
2022/04/08 04:19:55;;;;;;;14.50;10.15;;;;;;;8.33;100.00;98385.97;6326154;28;20119;-74
2022/04/08 04:22:56;;;;;;;14.93;9.98;;;;;;;8.26;100.00;98386.44;6326206;28;20074;-74
2022/04/08 04:25:57;;;;;;;16.65;9.98;;;;;;;8.26;100.00;98381.25;6322871;28;20476;-74
2022/04/08 04:28:57;;;;;;;15.30;10.63;;;;;;;8.25;100.00;98389.97;6299560;28;20480;-75
2022/04/08 04:31:59;;;;;;;14.02;8.90;;;;;;;8.24;100.00;98409.13;6282818;28;20058;-74
2022/04/08 04:35:06;;;;;;;15.73;10.27;;;;;;;8.22;100.00;98410.19;6299205;28;20048;-75
2022/04/08 04:38:07;;;;;;;18.40;9.43;;;;;;;8.32;100.00;98436.28;6299560;28;20055;-75
2022/04/08 04:41:12;;;;;;;17.77;10.05;;;;;;;8.29;100.00;98437.34;6307266;28;20146;-75
2022/04/08 04:44:13;;;;;;;15.00;9.90;;;;;;;8.32;100.00;98457.06;6324292;28;20054;-75
2022/04/08 04:47:14;;;;;;;18.60;9.98;;;;;;;8.35;100.00;98462.84;6307323;28;20048;-74
2022/04/08 04:50:15;;;;;;;14.82;9.70;;;;;;;8.26;100.00;98455.78;6324620;28;20051;-75
2022/04/08 04:53:15;;;;;;;16.77;9.70;;;;;;;8.33;100.00;98472.53;6298095;28;20055;-74
2022/04/08 04:56:16;;;;;;;13.07;8.77;;;;;;;8.40;100.00;98484.13;6304001;28;20500;-75
2022/04/08 04:59:18;;;;;;;13.93;9.23;;;;;;;8.38;100.00;98490.38;6304878;28;20055;-78
2022/04/08 05:02:19;;;;;;;29.40;16.23;;;;;;;8.39;100.00;98513.66;6297692;28;20095;-78
2022/04/08 05:05:20;;;;;;;28.67;16.45;;;;;;;8.34;100.00;98510.59;6297561;28;20044;-78
2022/04/08 05:08:21;;;;;;;49.80;25.10;;;;;;;8.33;100.00;98521.09;6306150;28;20480;-75
2022/04/08 05:11:21;;;;;;;35.33;19.70;;;;;;;8.30;100.00;98540.38;6322665;28;20128;-75
2022/04/08 05:14:24;;;;;;;46.10;24.60;;;;;;;8.43;100.00;98548.91;6305604;28;20051;-78
2022/04/08 05:17:25;;;;;;;132.05;54.08;;;;;;;8.46;100.00;98540.88;6306065;28;20044;-78
2022/04/08 05:20:26;;;;;;;70.45;36.67;;;;;;;8.51;100.00;98555.31;6305753;28;20043;-78
2022/04/08 05:23:29;;;;;;;58.17;33.10;;;;;;;8.60;100.00;98546.78;6322548;28;20120;-78
2022/04/08 05:26:35;;;;;;;64.93;34.38;;;;;;;8.74;100.00;98538.75;6322192;28;20044;-78
2022/04/08 05:29:36;;;;;;;30.27;16.65;;;;;;;8.91;100.00;98539.22;6321905;28;20564;-78
2022/04/08 05:32:37;;;;;;;78.47;34.50;;;;;;;9.13;100.00;98546.16;6321177;28;20032;-78
2022/04/08 05:35:37;;;;;;;50.83;29.55;;;;;;;9.13;100.00;98549.59;6287303;28;20076;-78
2022/04/08 05:38:38;;;;;;;31.50;19.27;;;;;;;9.18;100.00;98534.44;6298879;28;20048;-78
2022/04/08 05:41:39;;;;;;;28.38;17.88;;;;;;;9.32;100.00;98535.94;6321597;28;20052;-74
2022/04/08 05:44:40;;;;;;;24.08;16.60;;;;;;;9.41;100.00;98530.00;6322570;28;20036;-74
2022/04/08 05:47:41;;;;;;;20.08;14.20;;;;;;;9.41;100.00;98531.75;6304733;28;20052;-74
2022/04/08 05:50:41;;;;;;;14.52;9.00;;;;;;;9.43;100.00;98538.53;6304782;28;20044;-75
2022/04/08 05:53:42;;;;;;;15.18;10.07;;;;;;;9.54;100.00;98522.03;6321510;28;20126;-74
2022/04/08 05:56:43;;;;;;;14.32;8.48;;;;;;;9.51;100.00;98531.84;6304529;28;20044;-75
2022/04/08 05:59:44;;;;;;;12.98;8.43;;;;;;;9.50;100.00;98531.03;6304345;28;20096;-75
2022/04/08 06:02:47;;;;;;;18.92;9.85;;;;;;;9.48;100.00;98541.56;6338409;28;20151;-74
2022/04/08 06:05:47;;;;;;;12.45;9.48;;;;;;;9.40;100.00;98548.34;6321082;28;20044;-74
2022/04/08 06:08:48;;;;;;;14.48;8.60;;;;;;;9.36;100.00;98546.94;6337905;28;20499;-74
2022/04/08 06:11:49;;;;;;;23.00;9.80;;;;;;;9.50;100.00;98551.03;6320807;28;20047;-74
2022/04/08 06:14:50;;;;;;;14.90;9.55;;;;;;;9.43;100.00;98553.28;6322011;28;20412;-74
2022/04/08 06:17:51;;;;;;;20.08;8.95;;;;;;;9.39;100.00;98554.47;6320879;28;20096;-74
2022/04/08 06:20:51;;;;;;;14.07;9.63;;;;;;;9.41;100.00;98561.25;6335449;28;20079;-74
2022/04/08 06:23:52;;;;;;;14.65;9.93;;;;;;;9.32;100.00;98581.97;6271059;28;20045;-74
2022/04/08 06:26:54;;;;;;;14.40;9.85;;;;;;;9.36;100.00;98584.19;6310778;28;20097;-78
2022/04/08 06:29:55;;;;;;;17.17;10.13;;;;;;;9.28;100.00;98592.59;6295269;28;20059;-78
2022/04/08 06:32:56;;;;;;;15.45;11.25;;;;;;;9.26;100.00;98583.28;6303404;28;20087;-78
2022/04/08 06:35:56;;;;;;;16.45;10.88;;;;;;;9.23;100.00;98586.13;6287074;28;20119;-78
2022/04/08 06:38:57;;;;;;;18.52;11.05;;;;;;;9.23;100.00;98580.94;6320616;28;20046;-78
2022/04/08 06:41:58;;;;;;;17.17;11.02;;;;;;;9.20;100.00;98575.94;6294380;28;20079;-79
2022/04/08 06:45:00;;;;;;;17.35;10.77;;;;;;;9.20;100.00;98568.97;6300606;28;20080;-79
2022/04/08 06:48:00;;;;;;;17.40;10.48;;;;;;;9.22;100.00;98576.66;6320268;28;20048;-79
2022/04/08 06:51:04;;;;;;;17.02;11.20;;;;;;;9.18;100.00;98594.31;6321605;28;20040;-80
2022/04/08 06:54:05;;;;;;;24.42;12.57;;;;;;;9.30;100.00;98608.09;6303948;28;20420;-81
2022/04/08 06:57:06;;;;;;;16.83;10.20;;;;;;;9.26;100.00;98589.28;6286784;28;20110;-81
2022/04/08 07:00:09;;;;;;;18.27;11.35;;;;;;;9.40;100.00;98616.03;6321495;28;20042;-81
2022/04/08 07:03:10;;;;;;;18.15;11.07;;;;;;;9.53;100.00;98611.50;6303580;28;20048;-82
2022/04/08 07:06:11;;;;;;;17.13;10.25;;;;;;;9.63;100.00;98607.19;6321112;28;20549;-83
2022/04/08 07:09:12;;;;;;;17.30;10.82;;;;;;;9.67;100.00;98613.00;6281048;28;20078;-83
2022/04/08 07:12:12;;;;;;;22.88;11.40;;;;;;;9.77;100.00;98633.94;6261351;28;20401;-82
2022/04/08 07:15:13;;;;;;;19.50;12.18;;;;;;;9.79;100.00;98627.66;6294582;28;20067;-83
2022/04/08 07:18:14;;;;;;;19.67;11.38;;;;;;;9.69;100.00;98637.97;6294682;28;20063;-82
2022/04/08 07:21:15;;;;;;;17.42;11.25;;;;;;;9.72;100.00;98649.09;6294831;28;20542;-82
2022/04/08 07:24:16;;;;;;;21.65;12.55;;;;;;;9.56;100.00;98660.72;6294710;28;20119;-79
2022/04/08 07:27:17;;;;;;;23.88;12.45;;;;;;;9.63;100.00;98669.69;6294327;28;20068;-79
2022/04/08 07:30:21;;;;;;;26.73;13.15;;;;;;;9.59;100.00;98690.91;6294192;28;20397;-78
2022/04/08 07:33:24;;;;;;;17.20;11.50;;;;;;;9.62;100.00;98693.28;6294415;28;20397;-78
2022/04/08 07:36:26;;;;;;;19.70;12.27;;;;;;;9.60;100.00;98687.38;6311672;28;20047;-78
2022/04/08 07:39:27;;;;;;;31.92;13.00;;;;;;;9.58;100.00;98674.47;6302496;28;20059;-78
2022/04/08 07:42:28;;;;;;;19.90;11.23;;;;;;;9.92;100.00;98678.75;6319228;28;20040;-78
2022/04/08 07:45:30;;;;;;;14.38;9.90;;;;;;;10.17;100.00;98680.22;6285793;28;20039;-76
2022/04/08 07:48:31;;;;;;;14.40;10.45;;;;;;;10.05;100.00;98682.88;6319237;28;20385;-79
2022/04/08 07:51:32;;;;;;;15.00;10.65;;;;;;;10.07;100.00;98701.00;6302104;28;20058;-78
2022/04/08 07:54:33;;;;;;;13.30;9.45;;;;;;;9.77;100.00;98709.47;6319346;28;20048;-78
2022/04/08 07:57:41;;;;;;;15.93;9.77;;;;;;;9.81;100.00;98729.13;6302221;28;20059;-77
2022/04/08 08:00:42;;;;;;;18.80;10.65;;;;;;;9.77;100.00;98744.16;6319122;28;20475;-77
2022/04/08 08:03:45;;;;;;;18.15;9.43;;;;;;;9.87;100.00;98746.88;6318833;28;20097;-81
2022/04/08 08:06:46;;;;;;;18.23;10.80;;;;;;;9.87;100.00;98746.88;6314597;28;20040;-80
2022/04/08 08:09:47;;;;;;;14.63;10.10;;;;;;;9.97;100.00;98755.63;6294991;28;20079;-81
2022/04/08 08:12:49;;;;;;;17.48;10.60;;;;;;;10.17;100.00;98764.47;6260593;28;20428;-81
2022/04/08 08:15:50;;;;;;;;;;;;;;;10.39;100.00;98752.34;6295247;28;20086;-81
2022/04/08 08:18:56;;;;;;;12.82;7.85;;;;;;;10.51;100.00;98737.47;6293811;28;19944;-81
2022/04/08 08:21:57;;;;;;;12.93;7.03;;;;;;;10.63;100.00;98742.50;6294861;28;20044;-82
2022/04/08 08:24:58;;;;;;;11.98;7.30;;;;;;;10.78;100.00;98744.81;6294816;28;20045;-83
2022/04/08 08:28:01;;;;;;;11.18;5.93;;;;;;;10.95;100.00;98730.38;6293699;28;20060;-83
2022/04/08 08:31:04;;;;;;;7.43;4.50;;;;;;;11.58;98.07;98731.09;6293754;28;20549;-83
2022/04/08 08:34:05;;;;;;;6.68;3.03;;;;;;;12.01;91.58;98732.59;6293804;28;20484;-82
2022/04/08 08:37:06;;;;;;;7.63;4.10;;;;;;;12.07;87.77;98733.84;6293423;28;20056;-82
2022/04/08 08:40:08;;;;;;;4.15;2.80;;;;;;;12.21;87.96;98730.84;6293493;28;20520;-81
2022/04/08 08:43:17;;;;;;;6.20;3.90;;;;;;;12.46;91.72;98742.56;6294696;28;20036;-80
2022/04/08 08:46:18;;;;;;;9.30;4.80;;;;;;;12.70;92.08;98749.16;6293199;28;20078;-80
2022/04/08 08:49:20;;;;;;;11.05;4.85;;;;;;;12.88;90.52;98744.03;6293392;28;20520;-80
2022/04/08 08:52:21;;;;;;;5.57;4.10;;;;;;;13.00;89.79;98752.56;6294642;28;20041;-77
2022/04/08 08:55:24;;;;;;;12.00;6.78;;;;;;;13.57;92.76;98757.78;6293093;28;20288;-77
2022/04/08 08:58:25;;;;;;;9.30;6.38;;;;;;;13.37;95.82;98764.91;6293147;28;20508;-76
2022/04/08 09:01:26;;;;;;;13.55;8.18;;;;;;;13.36;98.49;98776.34;6293111;28;20383;-76
2022/04/08 09:04:28;;;;;;;11.90;7.03;;;;;;;13.25;98.53;98790.41;6295272;28;20131;-75
2022/04/08 09:07:29;;;;;;;9.10;6.30;;;;;;;13.34;96.41;98788.78;6288917;28;20071;-76
2022/04/08 09:10:40;;;;;;;13.57;7.60;;;;;;;13.28;99.24;98785.72;6339682;28;20588;-75
2022/04/08 09:13:48;;;;;;;11.07;6.03;;;;;;;13.39;91.63;98778.72;6322726;28;20066;-75
2022/04/08 09:16:49;;;;;;;6.55;4.22;;;;;;;13.37;82.76;98776.22;6339137;28;20076;-75
2022/04/08 09:19:55;;;;;;;6.43;3.70;;;;;;;13.35;80.04;98798.28;6322332;28;20043;-75
2022/04/08 09:22:56;;;;;;;5.57;2.97;;;;;;;13.56;77.51;98806.78;6322007;28;20059;-75
2022/04/08 09:26:02;;;;;;;4.45;2.67;;;;;;;13.60;71.79;98796.84;6322166;28;20047;-74
2022/04/08 09:29:04;;;;;;;3.60;2.20;;;;;;;13.46;71.31;98801.56;6301471;28;20037;-74
2022/04/08 09:32:09;;;;;;;2.97;1.13;;;;;;;13.46;59.46;98793.69;6302589;28;20044;-74
2022/04/08 09:35:17;;;;;;;5.05;1.20;;;;;;;13.61;62.50;98791.47;6296633;28;20048;-75
2022/04/08 09:38:20;;;;;;;3.72;1.70;;;;;;;13.66;55.22;98799.69;6313517;28;20048;-74
2022/04/08 09:41:23;;;;;;;4.50;1.70;;;;;;;13.83;55.34;98800.72;6320791;28;20044;-74
2022/04/08 09:44:24;;;;;;;4.28;1.27;;;;;;;13.99;55.29;98799.28;6326327;28;20044;-74
2022/04/08 09:47:26;;;;;;;3.70;1.10;;;;;;;14.32;56.83;98818.84;6313657;28;20052;-74
2022/04/08 09:50:28;;;;;;;4.85;1.10;;;;;;;14.46;53.65;98805.22;6296727;28;20440;-74
2022/04/08 09:53:29;;;;;;;7.30;0.93;;;;;;;14.57;51.12;98813.88;6297745;28;20114;-73
2022/04/08 09:56:30;;;;;;;1.98;0.70;;;;;;;14.77;52.01;98812.75;6279754;28;20053;-74
2022/04/08 09:59:35;;;;;;;4.30;0.75;;;;;;;14.50;47.42;98814.44;6296383;28;20032;-74
2022/04/08 10:02:41;;;;;;;2.83;1.30;;;;;;;14.49;49.52;98811.97;6296078;28;20044;-74
2022/04/08 10:05:42;;;;;;;4.15;0.77;;;;;;;14.42;48.64;98806.47;6297404;28;20405;-74
2022/04/08 10:08:44;;;;;;;5.38;1.30;;;;;;;14.60;51.34;98793.41;6295896;28;20142;-74
2022/04/08 10:12:00;;;;;;;3.72;0.88;;;;;;;14.69;47.84;98825.81;6262740;28;20080;-73
2022/04/08 10:15:09;;;;;;;2.72;0.80;;;;;;;14.75;49.53;98819.97;6298514;28;20515;-73
2022/04/08 10:18:09;;;;;;;2.03;1.10;;;;;;;14.73;48.97;98807.97;6297130;28;20040;-74
2022/04/08 10:21:11;;;;;;;3.97;1.00;;;;;;;14.62;47.72;98825.59;6296073;28;20063;-74
2022/04/08 10:24:15;;;;;;;;;;;;;;;14.81;49.45;98816.72;6297140;28;20061;-74
2022/04/08 10:27:28;;;;;;;4.22;0.90;;;;;;;14.82;48.12;98813.13;6295468;28;19921;-73
2022/04/08 10:30:32;;;;;;;3.97;0.95;;;;;;;14.74;48.05;98797.28;6295681;28;20041;-74
2022/04/08 10:33:33;;;;;;;1.77;0.93;;;;;;;14.89;49.30;98806.28;6302735;28;20044;-73
2022/04/08 10:36:40;;;;;;;5.22;0.95;;;;;;;15.61;48.53;98800.88;6320551;28;20083;-74
2022/04/08 10:39:42;;;;;;;2.53;0.77;;;;;;;16.23;47.71;98810.38;6321595;28;20144;-74
2022/04/08 10:42:44;;;;;;;1.92;0.70;;;;;;;16.71;40.29;98801.72;6320587;28;20040;-73
2022/04/08 10:46:03;;;;;;;5.13;0.90;;;;;;;16.91;40.63;98789.09;6337187;28;20040;-74
2022/04/08 10:49:08;;;;;;;4.60;0.90;;;;;;;17.35;39.38;98789.72;6337128;28;20059;-73
2022/04/08 10:52:15;;;;;;;3.92;0.60;;;;;;;17.72;38.07;98786.47;6303233;28;20105;-73
2022/04/08 10:55:16;;;;;;;3.25;0.60;;;;;;;17.71;37.03;98787.47;6320096;28;20102;-73
2022/04/08 10:58:35;;;;;;;2.83;0.90;;;;;;;17.72;36.88;98781.19;6320008;28;20051;-73
2022/04/08 11:01:46;;;;;;;5.47;1.05;;;;;;;17.72;30.82;98787.28;6313542;28;20480;-73
2022/04/08 11:04:47;;;;;;;7.38;1.10;;;;;;;17.87;33.15;98783.97;6301559;28;20040;-73
2022/04/08 11:07:53;;;;;;;4.60;0.40;;;;;;;17.95;31.59;98788.38;6294715;28;20058;-74
2022/04/08 11:10:58;;;;;;;4.18;0.60;;;;;;;17.71;32.03;98784.84;6294488;28;20524;-74
2022/04/08 11:14:00;;;;;;;4.07;0.80;;;;;;;17.74;29.96;98792.41;6308552;28;20047;-74
2022/04/08 11:17:01;;;;;;;;;;;;;;;18.03;29.70;98802.38;6321468;28;20044;-77
2022/04/08 11:20:07;;;;;;;3.00;0.63;;;;;;;18.16;30.67;98793.91;6320962;28;20019;-78
2022/04/08 11:23:08;;;;;;;3.35;0.60;;;;;;;18.20;29.30;98786.44;6288661;28;20496;-77
2022/04/08 11:26:12;;;;;;;1.75;0.60;;;;;;;18.69;33.88;98796.69;6310725;28;20032;-78
2022/04/08 11:29:24;;;;;;;4.57;0.90;;;;;;;18.18;32.00;98793.72;6310846;28;20259;-77
2022/04/08 11:32:31;;;;;;;4.35;0.60;;;;;;;18.29;31.30;98802.06;6310130;28;20033;-76
2022/04/08 11:35:32;;;;;;;0.57;0.43;;;;;;;18.19;30.05;98809.38;6294288;28;20051;-78
2022/04/08 11:38:33;;;;;;;3.28;0.90;;;;;;;18.24;29.09;98800.94;6295442;28;20068;-73
2022/04/08 11:41:35;;;;;;;2.97;1.00;;;;;;;18.94;31.12;98792.06;6310989;28;20044;-73
2022/04/08 11:44:37;;;;;;;;;;;;;;;18.92;30.27;98792.28;6294482;28;20492;-73
2022/04/08 11:47:45;;;;;;;4.80;0.73;;;;;;;18.27;28.93;98792.69;6291296;28;20330;-73
2022/04/08 11:50:48;;;;;;;5.57;0.60;;;;;;;18.76;30.20;98789.72;6319009;28;20055;-73
2022/04/08 11:53:53;;;;;;;1.17;0.38;;;;;;;18.70;29.34;98787.78;6294581;28;20036;-78
2022/04/08 11:56:54;;;;;;;5.18;0.90;;;;;;;19.00;29.96;98782.63;6295087;28;20110;-78
2022/04/08 11:59:55;;;;;;;5.82;0.70;;;;;;;18.82;29.42;98783.75;6293894;28;20441;-78
2022/04/08 12:02:58;;;;;;;5.65;0.50;;;;;;;19.12;28.68;98782.00;6293809;28;20052;-78
2022/04/08 12:06:01;;;;;;;2.75;0.50;;;;;;;19.03;29.76;98788.38;6293713;28;20132;-77
2022/04/08 12:09:03;;;;;;;2.13;0.70;;;;;;;19.07;28.86;98787.00;6294741;28;20040;-78
2022/04/08 12:12:07;;;;;;;;;;;;;;;18.93;30.08;98780.69;6310917;28;20045;-78
2022/04/08 12:15:09;;;;;;;4.38;2.33;;;;;;;18.71;31.61;98792.06;6310375;28;19943;-77
2022/04/08 12:18:11;;;;;;;1.85;1.05;;;;;;;17.91;31.22;98798.47;6318520;28;20044;-77
2022/04/08 12:21:12;;;;;;;11.38;1.30;;;;;;;18.47;31.68;98796.53;6301342;28;20415;-77
2022/04/08 12:24:15;;;;;;;4.88;0.70;;;;;;;19.06;30.88;98781.91;6296347;28;20074;-77
2022/04/08 12:27:19;;;;;;;5.28;0.80;;;;;;;19.41;31.11;98788.34;6295394;28;20136;-78
2022/04/08 12:30:26;;;;;;;5.45;0.70;;;;;;;19.26;30.95;98793.59;6276948;28;20049;-77
2022/04/08 12:33:27;;;;;;;10.10;1.30;;;;;;;19.39;30.45;98789.53;6309684;28;20040;-78
2022/04/08 12:36:28;;;;;;;3.83;0.95;;;;;;;19.40;30.60;98799.13;6301907;28;20507;-78
2022/04/08 12:39:29;;;;;;;2.05;0.60;;;;;;;19.59;31.31;98792.47;6322347;28;20043;-77
2022/04/08 12:42:38;;;;;;;10.63;0.70;;;;;;;19.54;30.77;98771.84;6323603;28;20040;-77
2022/04/08 12:45:39;;;;;;;2.38;0.63;;;;;;;19.52;30.90;98790.53;6323549;28;20032;-77
2022/04/08 12:48:40;;;;;;;10.45;0.95;;;;;;;19.37;30.63;98789.69;6324613;28;20119;-78
2022/04/08 12:51:41;;;;;;;3.83;0.50;;;;;;;19.25;29.99;98781.41;6340027;28;20105;-78
2022/04/08 12:54:42;;;;;;;7.72;0.75;;;;;;;19.19;30.30;98805.06;6302740;28;20044;-77
2022/04/08 12:57:43;;;;;;;4.30;0.83;;;;;;;18.87;29.17;98796.44;6323383;28;20044;-78
2022/04/08 13:00:44;;;;;;;13.48;1.13;;;;;;;18.86;29.54;98785.06;6323410;28;20056;-77
2022/04/08 13:03:45;;;;;;;3.55;1.27;;;;;;;19.24;30.95;98792.97;6324591;28;20043;-78
2022/04/08 13:06:46;;;;;;;4.33;0.50;;;;;;;18.83;29.79;98792.50;6324386;28;20480;-73
2022/04/08 13:09:47;;;;;;;2.92;0.77;;;;;;;18.71;30.30;98790.22;6322749;28;20280;-74
2022/04/08 13:12:47;;;;;;;1.10;0.43;;;;;;;18.43;30.02;98791.75;6322795;28;20048;-73
2022/04/08 13:15:49;;;;;;;2.80;0.80;;;;;;;18.64;31.25;98780.56;6322875;28;20519;-74
2022/04/08 13:18:50;;;;;;;1.23;0.40;;;;;;;18.41;30.07;98785.81;6323929;28;20040;-74
2022/04/08 13:21:51;;;;;;;2.67;0.50;;;;;;;18.34;30.42;98788.34;6322571;28;20071;-73
2022/04/08 13:24:52;;;;;;;2.85;0.50;;;;;;;18.59;30.04;98780.25;6314366;28;20054;-73
2022/04/08 13:27:53;;;;;;;2.72;0.63;;;;;;;18.58;29.83;98784.72;6323658;28;20119;-74
2022/04/08 13:30:54;;;;;;;6.43;0.73;;;;;;;18.47;30.72;98778.03;6297034;28;20062;-74
2022/04/08 13:33:55;;;;;;;4.17;0.47;;;;;;;18.32;29.84;98788.53;6301309;28;20544;-74
2022/04/08 13:36:56;;;;;;;2.33;0.50;;;;;;;18.22;29.81;98777.38;6298268;28;20101;-73
2022/04/08 13:39:57;;;;;;;0.83;0.60;;;;;;;18.39;31.90;98779.88;6296895;28;20052;-74
2022/04/08 13:43:00;;;;;;;1.88;0.60;;;;;;;18.26;30.44;98786.59;6296989;28;20052;-73
2022/04/08 13:46:01;;;;;;;4.05;0.73;;;;;;;18.27;30.47;98779.50;6296887;28;20116;-73
2022/04/08 13:49:02;;;;;;;3.72;1.05;;;;;;;18.15;30.19;98767.69;6296342;28;20098;-73
2022/04/08 13:52:03;;;;;;;7.67;0.93;;;;;;;18.05;31.08;98773.97;6313461;28;20037;-73
2022/04/08 13:55:05;;;;;;;1.48;0.63;;;;;;;18.04;30.55;98768.91;6296636;28;20131;-73
2022/04/08 13:58:05;;;;;;;2.05;0.43;;;;;;;18.08;30.57;98757.81;6296670;28;20143;-73
2022/04/08 14:01:07;;;;;;;7.63;0.60;;;;;;;18.19;31.36;98764.50;6313261;28;20068;-73
2022/04/08 14:04:10;;;;;;;5.83;2.27;;;;;;;18.20;30.17;98739.78;6296432;28;20052;-73
2022/04/08 14:07:11;;;;;;;7.07;3.20;;;;;;;18.30;31.16;98744.81;6296292;28;20527;-73